Historique des mesures à Cassis (13260), France
Quotidien Résumé Octobre 8, 2017 Unités:  Métrique    US   Métrique/US
« Précédent (Jour)
Suivant (Jour) »
Quotidien Hebdomadaire Mensuel Annuel Période au choix
  Maximum: Minimum: Moyenne:
Température: TemperatureC °C 13.6 °C 17 °C
Point de rosée: DewpointC °C 1.2 °C 6.9 °C
Humidité: Humidity % 33 % 49 %
Vitesse du vent: 0 km/h 0 km/h 21.4 km/h
Rafales: 0 km/h - -
Vent:- - SSE
Pression: PressurehPa hPa 1010.4 hPa -
Précipitations: 0.0 mm    
Historical Graphs
 
 
Mesures pour : Octobre 8, 2017
Heure Temperature Point de rosée Pression Vent Vitesse du vent Rafales Humidité Pluie (par heure) Conditions
TemperatureC °C DewpointC °C PressurehPa hPa Calm     Humidity % HourlyPrecipMM mm SoftwareType W/m2
00:11 14.8 °C 9.4 °C 1016.8 hPa NE 2.3 km/h 2.3 km/h 70 % 0.0 mm open2300-1.11 W/m2
01:11 14.1 °C 8.1 °C 1016.5 hPa NW 3.4 km/h 3.4 km/h 67 % 0.0 mm open2300-1.11 W/m2
02:11 14.1 °C 6.2 °C 1015.8 hPa Calm   4.7 km/h 59 % 0.0 mm open2300-1.11 W/m2
03:11 14.8 °C 6.6 °C 1015.5 hPa North 8.9 km/h 26.2 km/h 58 % 0.0 mm open2300-1.11 W/m2
04:11 14.4 °C 7.4 °C 1014.4 hPa North 11.6 km/h 23 km/h 63 % 0.0 mm open2300-1.11 W/m2
05:11 14.0 °C 7.7 °C 1014.4 hPa North 6.4 km/h 12.7 km/h 66 % 0.0 mm open2300-1.11 W/m2
06:11 13.8 °C 5.9 °C 1013.8 hPa Calm   2.9 km/h 59 % 0.0 mm open2300-1.11 W/m2
07:11 13.6 °C 4.7 °C 1013.4 hPa SE 6.9 km/h 6.9 km/h 55 % 0.0 mm open2300-1.11 W/m2
08:11 13.6 °C 4.9 °C 1013.1 hPa SE 7.6 km/h 8.9 km/h 56 % 0.0 mm open2300-1.11 W/m2
09:11 14.5 °C 5.8 °C 1013.4 hPa NNW 4.7 km/h 13.2 km/h 56 % 0.0 mm open2300-1.11 W/m2
10:11 17.8 °C 1.2 °C 1012.4 hPa North 47.3 km/h 47.3 km/h 33 % 0.0 mm open2300-1.11 W/m2
11:11 18.4 °C 6.8 °C 1012.1 hPa NW 45.9 km/h 45.9 km/h 47 % 0.0 mm open2300-1.11 W/m2
12:11 19.3 °C 7.7 °C 1012.4 hPa WNW 49.7 km/h 49.7 km/h 47 % 0.0 mm open2300-1.11 W/m2
13:11 20.1 °C 7.7 °C 1012.4 hPa NNE 16.3 km/h 56.2 km/h 45 % 0.0 mm open2300-1.11 W/m2
14:11 21.1 °C 8.6 °C 1011.7 hPa West 30.1 km/h 50.5 km/h 45 % 0.0 mm open2300-1.11 W/m2
15:11 22.2 °C 9.6 °C 1010.4 hPa WNW 31.4 km/h 59.5 km/h 45 % 0.0 mm open2300-1.11 W/m2
16:11 23.1 °C 9.4 °C 1010.4 hPa North 38.8 km/h 67.9 km/h 42 % 0.0 mm open2300-1.11 W/m2
17:11 23.2 °C 9.2 °C 1010.4 hPa North 32.3 km/h 51 km/h 41 % 0.0 mm open2300-1.11 W/m2
18:11 22.8 °C 9.2 °C 1010.7 hPa North 39.9 km/h 60.8 km/h 42 % 0.0 mm open2300-1.11 W/m2
20:11 20.4 °C 9.0 °C 1011.7 hPa NW 54.9 km/h 54.9 km/h 48 % 0.0 mm open2300-1.11 W/m2
21:11 19.6 °C 7.3 °C 1011.7 hPa NW 23.8 km/h 49.7 km/h 45 % 0.0 mm open2300-1.11 W/m2
22:11 19.3 °C 5.7 °C 1012.1 hPa North 29 km/h 54.9 km/h 41 % 0.0 mm open2300-1.11 W/m2
23:11 18.2 °C 6.6 °C 1012.8 hPa NW 23 km/h 23 km/h 47 % 0.0 mm open2300-1.11 W/m2
Observations météo à CASSIS
WU-History script by Weather Underground - 1 mb